sensor_id;sensor_type;location;lat;lon;timestamp;temperature;humidity
41557;DHT22;27720;51.992;5.890;2023-04-25T00:02:21;9.20;99.90
41557;DHT22;27720;51.992;5.890;2023-04-25T00:04:47;9.20;99.90
41557;DHT22;27720;51.992;5.890;2023-04-25T00:07:14;9.20;99.90
41557;DHT22;27720;51.992;5.890;2023-04-25T00:09:41;9.30;99.90
41557;DHT22;27720;51.992;5.890;2023-04-25T00:12:07;9.30;99.90
41557;DHT22;27720;51.992;5.890;2023-04-25T00:14:33;9.30;99.90
41557;DHT22;27720;51.992;5.890;2023-04-25T00:17:00;9.20;99.90
41557;DHT22;27720;51.992;5.890;2023-04-25T00:19:26;9.20;99.90
41557;DHT22;27720;51.992;5.890;2023-04-25T00:21:54;9.20;99.90
41557;DHT22;27720;51.992;5.890;2023-04-25T00:24:20;9.10;99.90
41557;DHT22;27720;51.992;5.890;2023-04-25T00:26:46;9.20;99.90
41557;DHT22;27720;51.992;5.890;2023-04-25T00:29:12;9.10;99.90
41557;DHT22;27720;51.992;5.890;2023-04-25T00:31:37;9.10;99.90
41557;DHT22;27720;51.992;5.890;2023-04-25T00:34:03;9.10;99.90
41557;DHT22;27720;51.992;5.890;2023-04-25T00:36:29;9.10;99.90
41557;DHT22;27720;51.992;5.890;2023-04-25T00:38:55;9.10;99.90
41557;DHT22;27720;51.992;5.890;2023-04-25T00:41:21;9.10;99.90
41557;DHT22;27720;51.992;5.890;2023-04-25T00:43:48;9.00;99.90
41557;DHT22;27720;51.992;5.890;2023-04-25T00:46:17;9.10;99.90
41557;DHT22;27720;51.992;5.890;2023-04-25T00:48:43;9.10;99.90
41557;DHT22;27720;51.992;5.890;2023-04-25T00:51:16;9.00;99.90
41557;DHT22;27720;51.992;5.890;2023-04-25T00:53:45;9.00;99.90
41557;DHT22;27720;51.992;5.890;2023-04-25T00:56:11;9.00;99.90
41557;DHT22;27720;51.992;5.890;2023-04-25T00:58:37;9.00;99.90
41557;DHT22;27720;51.992;5.890;2023-04-25T01:01:03;9.00;99.90
41557;DHT22;27720;51.992;5.890;2023-04-25T01:03:32;9.00;99.90
41557;DHT22;27720;51.992;5.890;2023-04-25T01:05:58;9.00;99.90
41557;DHT22;27720;51.992;5.890;2023-04-25T01:08:24;9.00;99.90
41557;DHT22;27720;51.992;5.890;2023-04-25T01:10:53;8.90;99.90
41557;DHT22;27720;51.992;5.890;2023-04-25T01:13:19;9.00;99.90
41557;DHT22;27720;51.992;5.890;2023-04-25T01:15:45;9.00;99.90
41557;DHT22;27720;51.992;5.890;2023-04-25T01:18:15;8.90;99.90
41557;DHT22;27720;51.992;5.890;2023-04-25T01:20:42;8.90;99.90
41557;DHT22;27720;51.992;5.890;2023-04-25T01:23:09;8.80;99.90
41557;DHT22;27720;51.992;5.890;2023-04-25T01:25:36;8.80;99.90
41557;DHT22;27720;51.992;5.890;2023-04-25T01:28:02;8.80;99.90
41557;DHT22;27720;51.992;5.890;2023-04-25T01:30:28;8.80;99.90
41557;DHT22;27720;51.992;5.890;2023-04-25T01:32:56;8.80;99.90
41557;DHT22;27720;51.992;5.890;2023-04-25T01:35:22;8.80;99.90
41557;DHT22;27720;51.992;5.890;2023-04-25T01:37:52;8.70;99.90
41557;DHT22;27720;51.992;5.890;2023-04-25T01:40:20;8.70;99.90
41557;DHT22;27720;51.992;5.890;2023-04-25T01:42:46;8.70;99.90
41557;DHT22;27720;51.992;5.890;2023-04-25T01:45:12;8.70;99.90
41557;DHT22;27720;51.992;5.890;2023-04-25T01:47:41;8.70;99.90
41557;DHT22;27720;51.992;5.890;2023-04-25T01:50:09;8.70;99.90
41557;DHT22;27720;51.992;5.890;2023-04-25T01:52:36;8.60;99.90
41557;DHT22;27720;51.992;5.890;2023-04-25T01:55:02;8.60;99.90
41557;DHT22;27720;51.992;5.890;2023-04-25T01:57:31;8.60;99.90
41557;DHT22;27720;51.992;5.890;2023-04-25T02:00:02;8.60;99.90
41557;DHT22;27720;51.992;5.890;2023-04-25T02:02:38;8.70;99.90
41557;DHT22;27720;51.992;5.890;2023-04-25T02:05:06;8.70;99.90
41557;DHT22;27720;51.992;5.890;2023-04-25T02:07:35;8.70;99.90
41557;DHT22;27720;51.992;5.890;2023-04-25T02:10:01;8.70;99.90
41557;DHT22;27720;51.992;5.890;2023-04-25T02:12:30;8.60;99.90
41557;DHT22;27720;51.992;5.890;2023-04-25T02:15:10;8.60;99.90
41557;DHT22;27720;51.992;5.890;2023-04-25T02:17:40;8.60;99.90
41557;DHT22;27720;51.992;5.890;2023-04-25T02:20:06;8.60;99.90
41557;DHT22;27720;51.992;5.890;2023-04-25T02:22:32;8.60;99.90
41557;DHT22;27720;51.992;5.890;2023-04-25T02:24:59;8.60;99.90
41557;DHT22;27720;51.992;5.890;2023-04-25T02:27:25;8.60;99.90
41557;DHT22;27720;51.992;5.890;2023-04-25T02:29:51;8.50;99.90
41557;DHT22;27720;51.992;5.890;2023-04-25T02:32:17;8.50;99.90
41557;DHT22;27720;51.992;5.890;2023-04-25T02:34:43;8.50;99.90
41557;DHT22;27720;51.992;5.890;2023-04-25T02:37:08;8.50;99.90
41557;DHT22;27720;51.992;5.890;2023-04-25T02:39:35;8.50;99.90
41557;DHT22;27720;51.992;5.890;2023-04-25T02:42:01;8.50;99.90
41557;DHT22;27720;51.992;5.890;2023-04-25T02:44:29;8.50;99.90
41557;DHT22;27720;51.992;5.890;2023-04-25T02:46:54;8.40;99.90
41557;DHT22;27720;51.992;5.890;2023-04-25T02:49:22;8.50;99.90
41557;DHT22;27720;51.992;5.890;2023-04-25T02:51:49;8.40;99.90
41557;DHT22;27720;51.992;5.890;2023-04-25T02:54:14;8.40;99.90
41557;DHT22;27720;51.992;5.890;2023-04-25T02:56:43;8.30;99.90
41557;DHT22;27720;51.992;5.890;2023-04-25T02:59:14;8.30;99.90
41557;DHT22;27720;51.992;5.890;2023-04-25T03:01:40;8.10;99.90
41557;DHT22;27720;51.992;5.890;2023-04-25T03:04:05;8.10;99.90
41557;DHT22;27720;51.992;5.890;2023-04-25T03:06:31;8.10;99.90
41557;DHT22;27720;51.992;5.890;2023-04-25T03:08:57;8.10;99.90
41557;DHT22;27720;51.992;5.890;2023-04-25T03:11:25;8.10;99.90
41557;DHT22;27720;51.992;5.890;2023-04-25T03:13:51;8.20;99.90
41557;DHT22;27720;51.992;5.890;2023-04-25T03:16:16;8.10;99.90
41557;DHT22;27720;51.992;5.890;2023-04-25T03:18:42;8.10;99.90
41557;DHT22;27720;51.992;5.890;2023-04-25T03:21:08;8.10;99.90
41557;DHT22;27720;51.992;5.890;2023-04-25T03:23:34;8.10;99.90
41557;DHT22;27720;51.992;5.890;2023-04-25T03:26:00;8.10;99.90
41557;DHT22;27720;51.992;5.890;2023-04-25T03:28:25;8.20;99.90
41557;DHT22;27720;51.992;5.890;2023-04-25T03:30:52;8.20;99.90
41557;DHT22;27720;51.992;5.890;2023-04-25T03:33:19;8.10;99.90
41557;DHT22;27720;51.992;5.890;2023-04-25T03:35:45;8.20;99.90
41557;DHT22;27720;51.992;5.890;2023-04-25T03:38:11;8.10;99.90
41557;DHT22;27720;51.992;5.890;2023-04-25T03:40:39;8.10;99.90
41557;DHT22;27720;51.992;5.890;2023-04-25T03:43:27;8.10;99.90
41557;DHT22;27720;51.992;5.890;2023-04-25T03:46:00;8.00;99.90
41557;DHT22;27720;51.992;5.890;2023-04-25T03:48:26;8.00;99.90
41557;DHT22;27720;51.992;5.890;2023-04-25T03:50:54;8.00;99.90
41557;DHT22;27720;51.992;5.890;2023-04-25T03:53:20;8.00;99.90
41557;DHT22;27720;51.992;5.890;2023-04-25T03:56:04;8.00;99.90
41557;DHT22;27720;51.992;5.890;2023-04-25T03:58:33;7.90;99.90
41557;DHT22;27720;51.992;5.890;2023-04-25T04:00:59;7.90;99.90
41557;DHT22;27720;51.992;5.890;2023-04-25T04:03:25;7.90;99.90
41557;DHT22;27720;51.992;5.890;2023-04-25T04:05:50;7.90;99.90
41557;DHT22;27720;51.992;5.890;2023-04-25T04:08:17;7.90;99.90
41557;DHT22;27720;51.992;5.890;2023-04-25T04:10:42;7.90;99.90
41557;DHT22;27720;51.992;5.890;2023-04-25T04:13:09;7.80;99.90
41557;DHT22;27720;51.992;5.890;2023-04-25T04:15:35;7.70;99.90
41557;DHT22;27720;51.992;5.890;2023-04-25T04:18:01;7.70;99.90
41557;DHT22;27720;51.992;5.890;2023-04-25T04:20:30;7.70;99.90
41557;DHT22;27720;51.992;5.890;2023-04-25T04:22:56;7.70;99.90
41557;DHT22;27720;51.992;5.890;2023-04-25T04:25:23;7.70;99.90
41557;DHT22;27720;51.992;5.890;2023-04-25T04:28:10;7.70;99.90
41557;DHT22;27720;51.992;5.890;2023-04-25T04:30:56;7.60;99.90
41557;DHT22;27720;51.992;5.890;2023-04-25T04:33:23;7.50;99.90
41557;DHT22;27720;51.992;5.890;2023-04-25T04:35:55;7.50;99.90
41557;DHT22;27720;51.992;5.890;2023-04-25T04:38:21;7.60;99.90
41557;DHT22;27720;51.992;5.890;2023-04-25T04:40:47;7.50;99.90
41557;DHT22;27720;51.992;5.890;2023-04-25T04:43:24;7.50;99.90
41557;DHT22;27720;51.992;5.890;2023-04-25T04:46:32;7.50;99.90
41557;DHT22;27720;51.992;5.890;2023-04-25T04:49:35;7.50;99.90
41557;DHT22;27720;51.992;5.890;2023-04-25T04:52:22;7.40;99.90
41557;DHT22;27720;51.992;5.890;2023-04-25T04:54:54;7.30;99.90
41557;DHT22;27720;51.992;5.890;2023-04-25T04:57:32;7.30;99.90
41557;DHT22;27720;51.992;5.890;2023-04-25T05:00:37;7.30;99.90
41557;DHT22;27720;51.992;5.890;2023-04-25T05:03:19;7.30;99.90
41557;DHT22;27720;51.992;5.890;2023-04-25T05:05:53;7.40;99.90
41557;DHT22;27720;51.992;5.890;2023-04-25T05:08:37;7.40;99.90
41557;DHT22;27720;51.992;5.890;2023-04-25T05:11:18;7.50;99.90
41557;DHT22;27720;51.992;5.890;2023-04-25T05:14:03;7.50;99.90
41557;DHT22;27720;51.992;5.890;2023-04-25T05:16:44;7.50;99.90
41557;DHT22;27720;51.992;5.890;2023-04-25T05:19:32;7.50;99.90
41557;DHT22;27720;51.992;5.890;2023-04-25T05:22:15;7.60;99.90
41557;DHT22;27720;51.992;5.890;2023-04-25T05:24:59;7.60;99.90
41557;DHT22;27720;51.992;5.890;2023-04-25T05:27:53;7.60;99.90
41557;DHT22;27720;51.992;5.890;2023-04-25T05:30:36;7.70;99.90
41557;DHT22;27720;51.992;5.890;2023-04-25T05:33:06;7.70;99.90
41557;DHT22;27720;51.992;5.890;2023-04-25T05:35:32;7.80;99.90
41557;DHT22;27720;51.992;5.890;2023-04-25T05:37:58;7.80;99.90
41557;DHT22;27720;51.992;5.890;2023-04-25T05:40:39;7.80;99.90
41557;DHT22;27720;51.992;5.890;2023-04-25T05:43:18;7.90;99.90
41557;DHT22;27720;51.992;5.890;2023-04-25T05:45:54;7.80;99.90
41557;DHT22;27720;51.992;5.890;2023-04-25T05:48:29;7.90;99.90
41557;DHT22;27720;51.992;5.890;2023-04-25T05:51:15;7.90;99.90
41557;DHT22;27720;51.992;5.890;2023-04-25T05:54:10;7.80;99.90
41557;DHT22;27720;51.992;5.890;2023-04-25T05:56:37;7.90;99.90
41557;DHT22;27720;51.992;5.890;2023-04-25T05:59:03;7.90;99.90
41557;DHT22;27720;51.992;5.890;2023-04-25T06:01:29;7.90;99.90
41557;DHT22;27720;51.992;5.890;2023-04-25T06:03:54;7.90;99.90
41557;DHT22;27720;51.992;5.890;2023-04-25T06:06:20;8.00;99.90
41557;DHT22;27720;51.992;5.890;2023-04-25T06:08:46;8.00;99.90
41557;DHT22;27720;51.992;5.890;2023-04-25T06:11:12;8.00;99.90
41557;DHT22;27720;51.992;5.890;2023-04-25T06:13:38;8.00;99.90
41557;DHT22;27720;51.992;5.890;2023-04-25T06:16:04;8.10;99.90
41557;DHT22;27720;51.992;5.890;2023-04-25T06:18:30;8.10;99.90
41557;DHT22;27720;51.992;5.890;2023-04-25T06:20:56;8.10;99.90
41557;DHT22;27720;51.992;5.890;2023-04-25T06:23:23;8.10;99.90
41557;DHT22;27720;51.992;5.890;2023-04-25T06:25:56;8.20;99.90
41557;DHT22;27720;51.992;5.890;2023-04-25T06:28:23;8.20;99.90
41557;DHT22;27720;51.992;5.890;2023-04-25T06:30:50;8.20;99.90
41557;DHT22;27720;51.992;5.890;2023-04-25T06:33:18;8.30;99.90
41557;DHT22;27720;51.992;5.890;2023-04-25T06:35:46;8.30;99.90
41557;DHT22;27720;51.992;5.890;2023-04-25T06:38:15;8.40;99.90
41557;DHT22;27720;51.992;5.890;2023-04-25T06:40:44;8.30;99.90
41557;DHT22;27720;51.992;5.890;2023-04-25T06:43:13;8.30;99.90
41557;DHT22;27720;51.992;5.890;2023-04-25T06:45:58;8.40;99.90
41557;DHT22;27720;51.992;5.890;2023-04-25T06:48:30;8.50;99.90
41557;DHT22;27720;51.992;5.890;2023-04-25T06:50:57;8.50;99.90
41557;DHT22;27720;51.992;5.890;2023-04-25T06:53:24;8.50;99.90
41557;DHT22;27720;51.992;5.890;2023-04-25T06:55:56;8.60;99.90
41557;DHT22;27720;51.992;5.890;2023-04-25T06:58:23;8.60;99.90
41557;DHT22;27720;51.992;5.890;2023-04-25T07:00:58;8.70;99.90
41557;DHT22;27720;51.992;5.890;2023-04-25T07:03:25;8.70;99.90
41557;DHT22;27720;51.992;5.890;2023-04-25T07:05:56;8.80;99.90
41557;DHT22;27720;51.992;5.890;2023-04-25T07:08:23;8.70;99.90
41557;DHT22;27720;51.992;5.890;2023-04-25T07:10:48;8.70;99.90
41557;DHT22;27720;51.992;5.890;2023-04-25T07:13:14;8.80;99.90
41557;DHT22;27720;51.992;5.890;2023-04-25T07:15:41;8.80;99.90
41557;DHT22;27720;51.992;5.890;2023-04-25T07:18:08;8.80;99.90
41557;DHT22;27720;51.992;5.890;2023-04-25T07:20:34;8.90;99.90
41557;DHT22;27720;51.992;5.890;2023-04-25T07:23:01;9.00;99.90
41557;DHT22;27720;51.992;5.890;2023-04-25T07:25:27;9.00;99.90
41557;DHT22;27720;51.992;5.890;2023-04-25T07:27:53;9.10;99.90
41557;DHT22;27720;51.992;5.890;2023-04-25T07:30:20;9.20;99.90
41557;DHT22;27720;51.992;5.890;2023-04-25T07:32:46;9.30;99.90
41557;DHT22;27720;51.992;5.890;2023-04-25T07:35:12;9.50;99.90
41557;DHT22;27720;51.992;5.890;2023-04-25T07:38:15;9.50;99.90
41557;DHT22;27720;51.992;5.890;2023-04-25T07:40:41;9.50;99.90
41557;DHT22;27720;51.992;5.890;2023-04-25T07:43:09;9.50;99.90
41557;DHT22;27720;51.992;5.890;2023-04-25T07:45:58;9.60;99.90
41557;DHT22;27720;51.992;5.890;2023-04-25T07:48:26;9.70;99.90
41557;DHT22;27720;51.992;5.890;2023-04-25T07:50:52;9.70;99.90
41557;DHT22;27720;51.992;5.890;2023-04-25T07:53:18;9.70;99.90
41557;DHT22;27720;51.992;5.890;2023-04-25T07:55:50;9.80;99.90
41557;DHT22;27720;51.992;5.890;2023-04-25T07:58:17;9.90;99.90
41557;DHT22;27720;51.992;5.890;2023-04-25T08:00:48;10.00;99.90
41557;DHT22;27720;51.992;5.890;2023-04-25T08:03:40;10.00;99.90
41557;DHT22;27720;51.992;5.890;2023-04-25T08:06:12;10.10;99.90
41557;DHT22;27720;51.992;5.890;2023-04-25T08:08:48;10.30;99.90
41557;DHT22;27720;51.992;5.890;2023-04-25T08:11:17;10.30;99.90
41557;DHT22;27720;51.992;5.890;2023-04-25T08:13:43;10.30;99.90
41557;DHT22;27720;51.992;5.890;2023-04-25T08:16:09;10.30;99.90
41557;DHT22;27720;51.992;5.890;2023-04-25T08:18:35;10.40;99.80
41557;DHT22;27720;51.992;5.890;2023-04-25T08:21:00;10.50;99.40
41557;DHT22;27720;51.992;5.890;2023-04-25T08:23:26;10.60;98.60
41557;DHT22;27720;51.992;5.890;2023-04-25T08:26:02;10.70;97.40
41557;DHT22;27720;51.992;5.890;2023-04-25T08:28:31;10.80;96.30
41557;DHT22;27720;51.992;5.890;2023-04-25T08:30:59;11.00;95.90
41557;DHT22;27720;51.992;5.890;2023-04-25T08:33:31;11.10;94.90
41557;DHT22;27720;51.992;5.890;2023-04-25T08:36:04;11.30;94.80
41557;DHT22;27720;51.992;5.890;2023-04-25T08:38:39;11.40;94.50
41557;DHT22;27720;51.992;5.890;2023-04-25T08:41:11;11.40;93.70
41557;DHT22;27720;51.992;5.890;2023-04-25T08:43:37;11.40;93.70
41557;DHT22;27720;51.992;5.890;2023-04-25T08:46:03;11.30;93.70
41557;DHT22;27720;51.992;5.890;2023-04-25T08:48:52;11.20;92.60
41557;DHT22;27720;51.992;5.890;2023-04-25T08:51:22;11.20;93.00
41557;DHT22;27720;51.992;5.890;2023-04-25T08:53:56;11.20;92.80
41557;DHT22;27720;51.992;5.890;2023-04-25T08:56:28;11.20;92.90
41557;DHT22;27720;51.992;5.890;2023-04-25T08:58:56;11.30;92.70
41557;DHT22;27720;51.992;5.890;2023-04-25T09:01:22;11.30;92.70
41557;DHT22;27720;51.992;5.890;2023-04-25T09:03:52;11.30;92.60
41557;DHT22;27720;51.992;5.890;2023-04-25T09:06:19;11.20;92.40
41557;DHT22;27720;51.992;5.890;2023-04-25T09:08:45;11.30;92.50
41557;DHT22;27720;51.992;5.890;2023-04-25T09:11:32;11.30;92.10
41557;DHT22;27720;51.992;5.890;2023-04-25T09:14:30;11.30;91.20
41557;DHT22;27720;51.992;5.890;2023-04-25T09:17:03;11.10;90.60
41557;DHT22;27720;51.992;5.890;2023-04-25T09:19:37;11.10;90.90
41557;DHT22;27720;51.992;5.890;2023-04-25T09:22:08;11.10;90.80
41557;DHT22;27720;51.992;5.890;2023-04-25T09:24:43;11.10;90.70
41557;DHT22;27720;51.992;5.890;2023-04-25T09:27:13;11.20;90.90
41557;DHT22;27720;51.992;5.890;2023-04-25T14:48:10;13.00;67.20
41557;DHT22;27720;51.992;5.890;2023-04-25T14:50:36;13.60;68.00
41557;DHT22;27720;51.992;5.890;2023-04-25T14:53:05;13.90;65.50
41557;DHT22;27720;51.992;5.890;2023-04-25T14:55:31;14.20;65.10
41557;DHT22;27720;51.992;5.890;2023-04-25T14:57:56;14.50;64.70
41557;DHT22;27720;51.992;5.890;2023-04-25T15:00:22;14.70;64.80
41557;DHT22;27720;51.992;5.890;2023-04-25T15:02:49;14.70;63.80
41557;DHT22;27720;51.992;5.890;2023-04-25T15:05:14;14.60;64.20
41557;DHT22;27720;51.992;5.890;2023-04-25T15:07:40;14.50;63.90
41557;DHT22;27720;51.992;5.890;2023-04-25T15:10:10;14.30;64.50
41557;DHT22;27720;51.992;5.890;2023-04-25T15:12:41;14.30;65.20
41557;DHT22;27720;51.992;5.890;2023-04-25T15:15:08;14.30;65.00
41557;DHT22;27720;51.992;5.890;2023-04-25T15:17:38;14.50;65.20
41557;DHT22;27720;51.992;5.890;2023-04-25T15:20:05;14.70;65.00
41557;DHT22;27720;51.992;5.890;2023-04-25T15:22:32;14.80;64.60
41557;DHT22;27720;51.992;5.890;2023-04-25T15:24:58;14.90;63.60
41557;DHT22;27720;51.992;5.890;2023-04-25T15:27:23;14.70;62.10
41557;DHT22;27720;51.992;5.890;2023-04-25T15:29:49;14.40;62.40
41557;DHT22;27720;51.992;5.890;2023-04-25T15:32:15;14.20;63.50
41557;DHT22;27720;51.992;5.890;2023-04-25T15:34:41;13.90;64.10
41557;DHT22;27720;51.992;5.890;2023-04-25T15:37:06;13.80;65.40
41557;DHT22;27720;51.992;5.890;2023-04-25T15:39:32;13.70;66.10
41557;DHT22;27720;51.992;5.890;2023-04-25T15:41:58;13.50;66.30
41557;DHT22;27720;51.992;5.890;2023-04-25T15:44:24;13.50;66.90
41557;DHT22;27720;51.992;5.890;2023-04-25T15:46:53;13.50;67.10
41557;DHT22;27720;51.992;5.890;2023-04-25T15:49:19;13.60;67.30
41557;DHT22;27720;51.992;5.890;2023-04-25T15:51:47;13.60;66.60
41557;DHT22;27720;51.992;5.890;2023-04-25T15:54:12;13.70;65.60
41557;DHT22;27720;51.992;5.890;2023-04-25T15:56:38;13.80;65.60
41557;DHT22;27720;51.992;5.890;2023-04-25T15:59:04;14.00;65.50
41557;DHT22;27720;51.992;5.890;2023-04-25T16:01:30;14.10;64.90
41557;DHT22;27720;51.992;5.890;2023-04-25T16:03:57;14.20;63.50
41557;DHT22;27720;51.992;5.890;2023-04-25T16:06:24;14.10;61.70
41557;DHT22;27720;51.992;5.890;2023-04-25T16:08:50;14.00;61.60
41557;DHT22;27720;51.992;5.890;2023-04-25T16:11:17;13.90;62.00
41557;DHT22;27720;51.992;5.890;2023-04-25T16:13:44;13.90;62.10
41557;DHT22;27720;51.992;5.890;2023-04-25T16:16:10;13.80;61.10
41557;DHT22;27720;51.992;5.890;2023-04-25T16:18:35;13.60;60.20
41557;DHT22;27720;51.992;5.890;2023-04-25T16:21:07;13.50;61.30
41557;DHT22;27720;51.992;5.890;2023-04-25T16:23:37;13.50;61.40
41557;DHT22;27720;51.992;5.890;2023-04-25T16:26:03;13.50;60.70
41557;DHT22;27720;51.992;5.890;2023-04-25T16:28:29;13.30;60.70
41557;DHT22;27720;51.992;5.890;2023-04-25T16:31:00;13.30;60.70
41557;DHT22;27720;51.992;5.890;2023-04-25T16:33:32;13.30;60.90
41557;DHT22;27720;51.992;5.890;2023-04-25T16:36:01;13.20;61.30
41557;DHT22;27720;51.992;5.890;2023-04-25T16:38:41;13.10;61.50
41557;DHT22;27720;51.992;5.890;2023-04-25T16:41:17;13.00;62.30
41557;DHT22;27720;51.992;5.890;2023-04-25T16:43:46;12.90;63.10
41557;DHT22;27720;51.992;5.890;2023-04-25T16:46:12;12.90;63.60
41557;DHT22;27720;51.992;5.890;2023-04-25T16:48:40;12.70;63.80
41557;DHT22;27720;51.992;5.890;2023-04-25T16:51:08;12.60;63.70
41557;DHT22;27720;51.992;5.890;2023-04-25T16:53:35;12.50;64.30
41557;DHT22;27720;51.992;5.890;2023-04-25T16:56:04;12.50;64.70
41557;DHT22;27720;51.992;5.890;2023-04-25T16:58:32;12.40;65.00
41557;DHT22;27720;51.992;5.890;2023-04-25T17:00:57;12.30;65.40
41557;DHT22;27720;51.992;5.890;2023-04-25T17:03:23;12.30;66.10
41557;DHT22;27720;51.992;5.890;2023-04-25T17:05:54;12.30;66.50
41557;DHT22;27720;51.992;5.890;2023-04-25T17:08:25;12.20;66.70
41557;DHT22;27720;51.992;5.890;2023-04-25T17:10:57;12.10;67.20
41557;DHT22;27720;51.992;5.890;2023-04-25T17:13:30;12.10;67.70
41557;DHT22;27720;51.992;5.890;2023-04-25T17:15:58;12.00;68.00
41557;DHT22;27720;51.992;5.890;2023-04-25T17:18:27;12.00;68.30
41557;DHT22;27720;51.992;5.890;2023-04-25T17:20:54;12.00;68.70
41557;DHT22;27720;51.992;5.890;2023-04-25T17:23:20;12.00;68.90
41557;DHT22;27720;51.992;5.890;2023-04-25T17:25:46;12.10;69.00
41557;DHT22;27720;51.992;5.890;2023-04-25T17:28:12;12.10;69.10
41557;DHT22;27720;51.992;5.890;2023-04-25T17:30:38;12.10;69.20
41557;DHT22;27720;51.992;5.890;2023-04-25T17:33:04;12.10;69.10
41557;DHT22;27720;51.992;5.890;2023-04-25T17:35:31;12.00;68.90
41557;DHT22;27720;51.992;5.890;2023-04-25T17:37:58;11.90;69.20
41557;DHT22;27720;51.992;5.890;2023-04-25T17:40:24;11.80;69.40
41557;DHT22;27720;51.992;5.890;2023-04-25T17:42:50;11.80;69.80
41557;DHT22;27720;51.992;5.890;2023-04-25T17:45:16;11.80;69.90
41557;DHT22;27720;51.992;5.890;2023-04-25T17:47:43;11.70;69.90
41557;DHT22;27720;51.992;5.890;2023-04-25T17:50:09;11.70;70.00
41557;DHT22;27720;51.992;5.890;2023-04-25T17:52:35;11.70;70.20
41557;DHT22;27720;51.992;5.890;2023-04-25T17:55:05;11.80;70.30
41557;DHT22;27720;51.992;5.890;2023-04-25T17:57:31;11.80;70.30
41557;DHT22;27720;51.992;5.890;2023-04-25T17:59:56;11.80;70.10
41557;DHT22;27720;51.992;5.890;2023-04-25T18:02:22;11.70;70.20
41557;DHT22;27720;51.992;5.890;2023-04-25T18:04:48;11.70;70.10
41557;DHT22;27720;51.992;5.890;2023-04-25T18:07:14;11.60;70.10
41557;DHT22;27720;51.992;5.890;2023-04-25T18:09:40;11.50;70.10
41557;DHT22;27720;51.992;5.890;2023-04-25T18:12:07;11.50;70.30
41557;DHT22;27720;51.992;5.890;2023-04-25T18:14:33;11.60;70.40
41557;DHT22;27720;51.992;5.890;2023-04-25T18:17:00;11.60;70.40
41557;DHT22;27720;51.992;5.890;2023-04-25T18:19:31;11.60;70.60
41557;DHT22;27720;51.992;5.890;2023-04-25T18:21:59;11.60;70.70
41557;DHT22;27720;51.992;5.890;2023-04-25T18:24:25;11.70;70.80
41557;DHT22;27720;51.992;5.890;2023-04-25T18:26:52;11.60;70.80
41557;DHT22;27720;51.992;5.890;2023-04-25T18:29:19;11.60;70.90
41557;DHT22;27720;51.992;5.890;2023-04-25T18:31:46;11.60;70.50
41557;DHT22;27720;51.992;5.890;2023-04-25T18:34:12;11.40;70.20
41557;DHT22;27720;51.992;5.890;2023-04-25T18:36:41;11.40;70.70
41557;DHT22;27720;51.992;5.890;2023-04-25T18:39:07;11.30;70.80
41557;DHT22;27720;51.992;5.890;2023-04-25T18:41:34;11.30;70.80
41557;DHT22;27720;51.992;5.890;2023-04-25T18:44:01;11.30;71.00
41557;DHT22;27720;51.992;5.890;2023-04-25T18:46:32;11.30;71.10
41557;DHT22;27720;51.992;5.890;2023-04-25T18:48:58;11.30;71.10
41557;DHT22;27720;51.992;5.890;2023-04-25T18:51:28;11.30;71.30
41557;DHT22;27720;51.992;5.890;2023-04-25T18:53:56;11.30;70.90
41557;DHT22;27720;51.992;5.890;2023-04-25T18:56:22;11.10;70.60
41557;DHT22;27720;51.992;5.890;2023-04-25T18:58:54;11.00;71.20
41557;DHT22;27720;51.992;5.890;2023-04-25T19:01:24;10.90;71.40
41557;DHT22;27720;51.992;5.890;2023-04-25T19:03:50;10.90;71.80
41557;DHT22;27720;51.992;5.890;2023-04-25T19:06:26;10.80;71.90
41557;DHT22;27720;51.992;5.890;2023-04-25T19:08:54;10.80;72.30
41557;DHT22;27720;51.992;5.890;2023-04-25T19:11:22;10.70;72.50
41557;DHT22;27720;51.992;5.890;2023-04-25T19:13:49;10.70;72.90
41557;DHT22;27720;51.992;5.890;2023-04-25T19:16:16;10.70;73.20
41557;DHT22;27720;51.992;5.890;2023-04-25T19:18:45;10.70;73.40
41557;DHT22;27720;51.992;5.890;2023-04-25T19:21:14;10.70;73.60
41557;DHT22;27720;51.992;5.890;2023-04-25T19:23:42;10.80;73.80
41557;DHT22;27720;51.992;5.890;2023-04-25T19:26:10;10.70;73.90
41557;DHT22;27720;51.992;5.890;2023-04-25T19:28:42;10.60;74.00
41557;DHT22;27720;51.992;5.890;2023-04-25T19:31:10;10.60;74.40
41557;DHT22;27720;51.992;5.890;2023-04-25T19:33:40;10.60;74.30
41557;DHT22;27720;51.992;5.890;2023-04-25T19:36:09;10.50;74.40
41557;DHT22;27720;51.992;5.890;2023-04-25T19:38:35;10.50;74.60
41557;DHT22;27720;51.992;5.890;2023-04-25T19:41:01;10.40;74.70
41557;DHT22;27720;51.992;5.890;2023-04-25T19:43:27;10.30;74.90
41557;DHT22;27720;51.992;5.890;2023-04-25T19:45:54;10.30;75.20
41557;DHT22;27720;51.992;5.890;2023-04-25T19:48:19;10.30;75.40
41557;DHT22;27720;51.992;5.890;2023-04-25T19:50:45;10.30;75.50
41557;DHT22;27720;51.992;5.890;2023-04-25T19:53:16;10.20;75.60
41557;DHT22;27720;51.992;5.890;2023-04-25T19:55:42;10.20;75.80
41557;DHT22;27720;51.992;5.890;2023-04-25T19:58:09;10.20;76.10
41557;DHT22;27720;51.992;5.890;2023-04-25T20:00:35;10.20;76.30
41557;DHT22;27720;51.992;5.890;2023-04-25T20:03:01;10.20;76.60
41557;DHT22;27720;51.992;5.890;2023-04-25T20:05:42;10.20;76.80
41557;DHT22;27720;51.992;5.890;2023-04-25T20:08:08;10.20;77.00
41557;DHT22;27720;51.992;5.890;2023-04-25T20:10:34;10.20;77.20
41557;DHT22;27720;51.992;5.890;2023-04-25T20:12:59;10.20;77.50
41557;DHT22;27720;51.992;5.890;2023-04-25T20:15:25;10.20;77.60
41557;DHT22;27720;51.992;5.890;2023-04-25T20:17:51;10.20;77.90
41557;DHT22;27720;51.992;5.890;2023-04-25T20:20:20;10.20;78.70
41557;DHT22;27720;51.992;5.890;2023-04-25T20:22:46;10.10;78.20
41557;DHT22;27720;51.992;5.890;2023-04-25T20:25:15;10.20;78.70
41557;DHT22;27720;51.992;5.890;2023-04-25T20:27:41;10.20;78.90
41557;DHT22;27720;51.992;5.890;2023-04-25T20:30:11;10.10;78.90
41557;DHT22;27720;51.992;5.890;2023-04-25T20:32:37;10.00;79.00
41557;DHT22;27720;51.992;5.890;2023-04-25T20:35:04;10.00;79.20
41557;DHT22;27720;51.992;5.890;2023-04-25T20:37:31;10.00;79.30
41557;DHT22;27720;51.992;5.890;2023-04-25T20:40:05;9.90;79.40
41557;DHT22;27720;51.992;5.890;2023-04-25T20:42:31;9.90;79.50
41557;DHT22;27720;51.992;5.890;2023-04-25T20:44:57;9.90;79.70
41557;DHT22;27720;51.992;5.890;2023-04-25T20:47:23;9.90;79.80
41557;DHT22;27720;51.992;5.890;2023-04-25T20:49:48;9.80;79.90
41557;DHT22;27720;51.992;5.890;2023-04-25T20:52:17;9.80;80.10
41557;DHT22;27720;51.992;5.890;2023-04-25T20:54:44;9.80;80.20
41557;DHT22;27720;51.992;5.890;2023-04-25T20:57:10;9.80;80.40
41557;DHT22;27720;51.992;5.890;2023-04-25T20:59:39;9.70;80.40
41557;DHT22;27720;51.992;5.890;2023-04-25T21:02:17;9.70;80.60
41557;DHT22;27720;51.992;5.890;2023-04-25T21:05:09;9.60;80.60
41557;DHT22;27720;51.992;5.890;2023-04-25T21:07:58;9.50;80.60
41557;DHT22;27720;51.992;5.890;2023-04-25T21:10:33;9.50;81.00
41557;DHT22;27720;51.992;5.890;2023-04-25T21:13:02;9.50;81.10